TimeEDT,TemperatureF,Dew PointF,Humidity,Sea Level PressureIn,VisibilityMPH,Wind Direction,Wind SpeedMPH,Gust SpeedMPH,PrecipitationIn,Events,Conditions,WindDirDegrees,DateUTC
12:15 AM,37.4,21.2,52,29.82,10.0,NNW,4.6,-,N/A,,Mostly Cloudy,330,2013-03-21 04:15:00
12:35 AM,37.4,21.2,52,29.81,10.0,North,4.6,-,N/A,,Overcast,10,2013-03-21 04:35:00
12:55 AM,39.2,19.4,45,29.80,10.0,North,5.8,-,N/A,,Overcast,10,2013-03-21 04:55:00
1:15 AM,37.4,21.2,52,29.80,10.0,NNW,9.2,-,N/A,,Overcast,340,2013-03-21 05:15:00
1:35 AM,37.4,23.0,56,29.79,10.0,North,13.8,17.3,N/A,,Partly Cloudy,360,2013-03-21 05:35:00
2:15 AM,35.6,24.8,65,29.79,10.0,North,9.2,-,N/A,,Clear,360,2013-03-21 06:15:00
2:35 AM,33.8,24.8,70,29.79,10.0,NNW,6.9,-,N/A,,Partly Cloudy,340,2013-03-21 06:35:00
2:55 AM,33.8,24.8,70,29.79,10.0,North,6.9,-,N/A,,Clear,350,2013-03-21 06:55:00
3:15 AM,33.8,24.8,70,29.79,10.0,North,6.9,-,N/A,,Clear,350,2013-03-21 07:15:00
3:35 AM,33.8,24.8,70,29.79,10.0,NNW,10.4,-,N/A,,Clear,340,2013-03-21 07:35:00
3:55 AM,33.8,26.6,75,29.77,10.0,North,6.9,-,N/A,,Clear,350,2013-03-21 07:55:00
4:15 AM,33.8,26.6,75,29.77,10.0,North,6.9,-,N/A,,Clear,350,2013-03-21 08:15:00
4:35 AM,32.0,24.8,75,29.76,10.0,North,9.2,-,N/A,,Clear,360,2013-03-21 08:35:00
4:55 AM,32.0,26.6,80,29.76,10.0,North,6.9,-,N/A,,Clear,10,2013-03-21 08:55:00
5:15 AM,32.0,26.6,80,29.76,10.0,North,5.8,-,N/A,,Clear,360,2013-03-21 09:15:00
5:35 AM,32.0,26.6,80,29.76,10.0,North,5.8,-,N/A,,Partly Cloudy,10,2013-03-21 09:35:00
5:55 AM,32.0,26.6,80,29.76,10.0,North,8.1,-,N/A,,Mostly Cloudy,360,2013-03-21 09:55:00
6:15 AM,32.0,26.6,80,29.76,10.0,North,9.2,-,N/A,,Overcast,350,2013-03-21 10:15:00
6:35 AM,32.0,26.6,80,29.76,10.0,North,8.1,-,N/A,,Overcast,350,2013-03-21 10:35:00
6:55 AM,32.0,26.6,80,29.76,10.0,North,10.4,-,N/A,,Overcast,350,2013-03-21 10:55:00
7:15 AM,32.0,24.8,75,29.76,10.0,NNW,9.2,-,N/A,,Overcast,340,2013-03-21 11:15:00
7:35 AM,32.0,23.0,69,29.77,10.0,North,9.2,-,N/A,,Overcast,350,2013-03-21 11:35:00
7:55 AM,33.8,23.0,65,29.77,10.0,North,8.1,-,N/A,,Overcast,360,2013-03-21 11:55:00
8:15 AM,33.8,24.8,70,29.77,10.0,North,11.5,-,N/A,,Overcast,10,2013-03-21 12:15:00
8:35 AM,33.8,21.2,60,29.76,10.0,North,10.4,19.6,N/A,,Overcast,350,2013-03-21 12:35:00
8:55 AM,33.8,21.2,60,29.76,10.0,North,15.0,20.7,N/A,,Overcast,350,2013-03-21 12:55:00
9:15 AM,33.8,21.2,60,29.75,10.0,North,11.5,-,N/A,,Overcast,360,2013-03-21 13:15:00
9:35 AM,33.8,19.4,56,29.76,10.0,NNW,10.4,-,N/A,,Overcast,340,2013-03-21 13:35:00
9:55 AM,33.8,21.2,60,29.75,10.0,North,12.7,-,N/A,,Overcast,360,2013-03-21 13:55:00
10:15 AM,33.8,23.0,65,29.75,10.0,NNW,12.7,-,N/A,,Overcast,330,2013-03-21 14:15:00
10:35 AM,32.0,24.8,75,29.75,9.0,North,13.8,-,N/A,,Overcast,360,2013-03-21 14:35:00
10:55 AM,32.0,24.8,75,29.75,10.0,NNW,11.5,-,N/A,,Overcast,340,2013-03-21 14:55:00
11:15 AM,30.2,24.8,80,29.74,8.0,North,10.4,-,N/A,,Overcast,350,2013-03-21 15:15:00
11:35 AM,32.0,23.0,69,29.74,8.0,North,9.2,-,N/A,,Overcast,350,2013-03-21 15:35:00
11:55 AM,33.8,21.2,60,29.73,10.0,NNW,15.0,-,N/A,,Overcast,330,2013-03-21 15:55:00
12:35 PM,35.6,19.4,52,29.71,10.0,NW,15.0,23.0,N/A,,Overcast,320,2013-03-21 16:35:00
12:55 PM,33.8,17.6,52,29.71,10.0,NW,15.0,18.4,N/A,,Overcast,320,2013-03-21 16:55:00
1:15 PM,33.8,17.6,52,29.71,10.0,NW,13.8,18.4,N/A,,Overcast,310,2013-03-21 17:15:00
1:35 PM,30.2,24.8,80,29.71,1.8,NNW,6.9,-,N/A,,Overcast,330,2013-03-21 17:35:00
1:55 PM,30.2,26.6,86,29.70,2.5,North,8.1,-,N/A,,Overcast,360,2013-03-21 17:55:00
2:15 PM,30.2,26.6,86,29.70,1.2,North,9.2,-,N/A,,Overcast,350,2013-03-21 18:15:00
2:35 PM,28.4,26.6,93,29.69,1.8,NNW,5.8,-,N/A,,Overcast,330,2013-03-21 18:35:00
2:55 PM,28.4,28.4,100,29.68,1.5,NW,4.6,-,N/A,,Overcast,310,2013-03-21 18:55:00
3:15 PM,30.2,26.6,86,29.68,2.0,NW,5.8,-,N/A,,Overcast,310,2013-03-21 19:15:00
3:35 PM,30.2,26.6,86,29.67,4.0,North,4.6,-,N/A,,Mostly Cloudy,350,2013-03-21 19:35:00
3:55 PM,30.2,28.4,93,29.66,10.0,NE,5.8,-,N/A,,Overcast,50,2013-03-21 19:55:00
4:15 PM,32.0,26.6,80,29.65,10.0,Calm,Calm,-,N/A,,Mostly Cloudy,0,2013-03-21 20:15:00
4:35 PM,33.8,26.6,75,29.65,10.0,Calm,Calm,-,N/A,,Overcast,0,2013-03-21 20:35:00
4:55 PM,33.8,26.6,75,29.65,10.0,Calm,Calm,-,N/A,,Overcast,0,2013-03-21 20:55:00
5:15 PM,33.8,26.6,75,29.65,10.0,ESE,3.5,-,N/A,,Overcast,110,2013-03-21 21:15:00
5:35 PM,35.6,26.6,70,29.65,10.0,Calm,Calm,-,N/A,,Overcast,0,2013-03-21 21:35:00
5:55 PM,35.6,26.6,70,29.65,10.0,SE,5.8,-,N/A,,Overcast,140,2013-03-21 21:55:00
6:15 PM,33.8,26.6,75,29.66,10.0,NNW,4.6,-,N/A,,Overcast,330,2013-03-21 22:15:00
6:35 PM,33.8,24.8,70,29.66,10.0,Calm,Calm,-,N/A,,Mostly Cloudy,0,2013-03-21 22:35:00
6:55 PM,35.6,17.6,48,29.66,10.0,NW,6.9,-,N/A,,Scattered Clouds,310,2013-03-21 22:55:00
7:15 PM,35.6,14.0,41,29.67,10.0,WNW,12.7,18.4,N/A,,Mostly Cloudy,300,2013-03-21 23:15:00
7:35 PM,35.6,14.0,41,29.68,10.0,WNW,11.5,16.1,N/A,,Mostly Cloudy,290,2013-03-21 23:35:00
7:55 PM,35.6,12.2,38,29.69,10.0,WNW,13.8,19.6,N/A,,Overcast,290,2013-03-21 23:55:00
8:15 PM,33.8,14.0,44,29.69,10.0,WNW,8.1,-,N/A,,Overcast,290,2013-03-22 00:15:00
8:35 PM,33.8,14.0,44,29.70,10.0,WNW,11.5,-,N/A,,Mostly Cloudy,290,2013-03-22 00:35:00
8:55 PM,33.8,14.0,44,29.71,10.0,WNW,17.3,20.7,N/A,,Partly Cloudy,300,2013-03-22 00:55:00
9:15 PM,33.8,15.8,48,29.71,10.0,WNW,13.8,-,N/A,,Clear,290,2013-03-22 01:15:00
9:35 PM,32.0,15.8,51,29.72,10.0,WNW,13.8,-,N/A,,Clear,300,2013-03-22 01:35:00
9:55 PM,32.0,15.8,51,29.73,10.0,WNW,11.5,19.6,N/A,,Clear,300,2013-03-22 01:55:00
10:15 PM,30.2,15.8,55,29.73,10.0,WNW,10.4,-,N/A,,Clear,300,2013-03-22 02:15:00
10:35 PM,30.2,15.8,55,29.74,10.0,WNW,11.5,17.3,N/A,,Clear,290,2013-03-22 02:35:00
10:55 PM,30.2,14.0,51,29.74,10.0,WNW,12.7,18.4,N/A,,Clear,290,2013-03-22 02:55:00
11:15 PM,30.2,15.8,55,29.74,10.0,WNW,10.4,18.4,N/A,,Clear,300,2013-03-22 03:15:00
11:35 PM,30.2,15.8,55,29.75,10.0,WNW,11.5,17.3,N/A,,Clear,300,2013-03-22 03:35:00
11:55 PM,30.2,15.8,55,29.76,10.0,WNW,12.7,16.1,N/A,,Clear,290,2013-03-22 03:55:00